Time;durP1;ratioP1;P1;durP2;ratioP2;P2;SDS_P1;SDS_P2;PMS_P1;PMS_P2;Temp;Humidity;BMP_temperature;BMP_pressure;BME280_temperature;BME280_humidity;BME280_pressure;Samples;Min_cycle;Max_cycle;Signal;HPM_P1;HPM_P2
2023/01/11 00:00:54;;;;;;;;;;;;;;;;;;2520997;23;20097;-92
2023/01/11 00:01:54;;;;;;;26.02;14.88;;;;;;;;;;2521138;23;20217;-94
2023/01/11 00:03:04;;;;;;;;;;;;;;;;;;2537088;23;20077;-93
2023/01/11 00:04:04;;;;;;;28.98;15.27;;;;;;;;;;2548664;23;19904;-92
2023/01/11 00:05:05;;;;;;;;;;;;;;;;;;2548954;23;20056;-91
2023/01/11 00:06:07;;;;;;;30.63;16.90;;;;;;;;;;2544250;23;20270;-92
2023/01/11 00:07:07;;;;;;;27.92;15.77;;;;;;;;;;2532246;23;20002;-92
2023/01/11 00:08:08;;;;;;;;;;;;;;;;;;2532747;23;20486;-93
2023/01/11 00:09:08;;;;;;;26.93;15.17;;;;;;;;;;2531917;23;19928;-92
2023/01/11 00:10:09;;;;;;;30.85;16.55;;;;;;;;;;2520018;23;19998;-92
2023/01/11 00:11:14;;;;;;;;;;;;;;;;;;2532486;23;20076;-93
2023/01/11 00:12:15;;;;;;;25.88;15.25;;;;;;;;;;2532586;23;19984;-91
2023/01/11 00:13:16;;;;;;;24.20;13.38;;;;;;;;;;2532312;23;20415;-92
2023/01/11 00:14:16;;;;;;;;;;;;;;;;;;2532759;23;19998;-93
2023/01/11 00:15:17;;;;;;;26.20;14.97;;;;;;;;;;2531188;23;19995;-92
2023/01/11 00:16:17;;;;;;;;;;;;;;;;;;2519336;23;20061;-92
2023/01/11 00:17:17;;;;;;;27.70;15.13;;;;;;;;;;2530656;23;20226;-93
2023/01/11 00:18:18;;;;;;;;;;;;;;;;;;2530737;23;20024;-92
2023/01/11 00:19:18;;;;;;;25.88;14.52;;;;;;;;;;2530384;23;20222;-91
2023/01/11 00:20:18;;;;;;;;;;;;;;;;;;2519662;23;19999;-92
2023/01/11 00:21:21;;;;;;;25.80;14.20;;;;;;;;;;2531630;23;19909;-91
2023/01/11 00:22:22;;;;;;;22.63;12.85;;;;;;;;;;2543996;23;20001;-93
2023/01/11 00:23:25;;;;;;;;;;;;;;;;;;2532684;23;19994;-91
2023/01/11 00:24:25;;;;;;;25.17;13.85;;;;;;;;;;2532382;23;19952;-92
2023/01/11 00:25:26;;;;;;;;;;;;;;;;;;2544396;23;20001;-90
2023/01/11 00:26:29;;;;;;;20.57;13.57;;;;;;;;;;2544156;23;19924;-93
2023/01/11 00:27:30;;;;;;;23.45;13.95;;;;;;;;;;2119062;23;10001680;-92
2023/01/11 00:28:39;;;;;;;21.23;13.13;;;;;;;;;;2109165;23;10001046;-90
2023/01/11 00:29:52;;;;;;;22.23;13.35;;;;;;;;;;2525423;23;20005;-92
2023/01/11 00:36:14;;;;;;;21.55;13.38;;;;;;;;;;2511425;23;20432;-91
2023/01/11 00:37:14;;;;;;;23.80;13.45;;;;;;;;;;2511455;23;20490;-93
2023/01/11 00:38:42;;;;;;;;;;;;;;;;;;2508293;23;20033;-91
2023/01/11 00:39:37;;;;;;;22.98;14.82;;;;;;;;;;2536825;23;19912;-92
2023/01/11 00:40:37;;;;;;;23.63;13.95;;;;;;;;;;2549801;23;19993;-92
2023/01/11 00:48:34;;;;;;;26.30;15.18;;;;;;;;;;2547292;23;20022;-93
2023/01/11 00:49:34;;;;;;;;;;;;;;;;;;2540859;23;20009;-93
2023/01/11 00:50:38;;;;;;;28.07;15.63;;;;;;;;;;2530038;23;19910;-91
2023/01/11 00:51:38;;;;;;;19.23;13.15;;;;;;;;;;2535672;23;20042;-92
2023/01/11 00:52:38;;;;;;;;;;;;;;;;;;2546479;23;19994;-92
2023/01/11 00:53:47;;;;;;;24.73;14.55;;;;;;;;;;2536465;23;19912;-90
2023/01/11 00:55:17;;;;;;;22.42;13.93;;;;;;;;;;2534098;23;20053;-90
2023/01/11 00:56:17;;;;;;;22.20;12.77;;;;;;;;;;2544533;23;20086;-91
2023/01/11 00:57:17;;;;;;;;;;;;;;;;;;2547062;23;20437;-92
2023/01/11 00:58:21;;;;;;;22.58;13.25;;;;;;;;;;2240368;23;10002396;-91
2023/01/11 00:59:21;;;;;;;;;;;;;;;;;;2532458;23;20229;-92
2023/01/11 01:00:22;;;;;;;22.27;13.83;;;;;;;;;;2535919;23;19923;-91
2023/01/11 01:01:22;;;;;;;;;;;;;;;;;;2544283;23;20324;-92
2023/01/11 01:02:23;;;;;;;21.87;14.13;;;;;;;;;;2548134;23;19912;-92
2023/01/11 01:03:23;;;;;;;19.02;13.45;;;;;;;;;;2543976;23;20021;-93
2023/01/11 01:04:51;;;;;;;;;;;;;;;;;;2532543;23;19990;-92
2023/01/11 01:06:21;;;;;;;;;;;;;;;;;;;;;
2023/01/11 01:07:27;;;;;;;22.10;13.07;;;;;;;;;;2545157;23;20006;-92
2023/01/11 01:08:27;;;;;;;19.77;12.52;;;;;;;;;;2546619;23;19993;-93
2023/01/11 01:09:28;;;;;;;;;;;;;;;;;;2560506;23;20092;-92
2023/01/11 01:10:28;;;;;;;20.85;12.88;;;;;;;;;;2118716;23;10001067;-91
2023/01/11 01:11:28;;;;;;;;;;;;;;;;;;2529558;23;20376;-91
2023/01/11 01:15:07;;;;;;;24.35;12.02;;;;;;;;;;2550007;23;20454;-91
2023/01/11 01:16:08;;;;;;;;;;;;;;;;;;2544594;23;20077;-91
2023/01/11 01:17:08;;;;;;;22.77;13.23;;;;;;;;;;2544554;23;19912;-92
2023/01/11 01:18:08;;;;;;;;;;;;;;;;;;2549077;23;19998;-92
2023/01/11 01:19:09;;;;;;;22.98;11.90;;;;;;;;;;2556731;23;19987;-91
2023/01/11 01:20:10;;;;;;;20.63;12.40;;;;;;;;;;2544093;23;20028;-91
2023/01/11 01:21:10;;;;;;;18.13;11.68;;;;;;;;;;2544361;23;20525;-92
2023/01/11 01:22:10;;;;;;;;;;;;;;;;;;2544712;23;19999;-92
2023/01/11 01:23:11;;;;;;;18.27;11.87;;;;;;;;;;2549953;23;19904;-90
2023/01/11 01:24:11;;;;;;;;;;;;;;;;;;2563473;23;20001;-92
2023/01/11 01:25:11;;;;;;;24.03;12.90;;;;;;;;;;2549818;23;19904;-91
2023/01/11 01:26:12;;;;;;;;;;;;;;;;;;2545025;23;20502;-92
2023/01/11 01:27:16;;;;;;;15.97;11.83;;;;;;;;;;2544429;23;19912;-92
2023/01/11 01:28:20;;;;;;;18.95;11.50;;;;;;;;;;2556723;23;20088;-92
2023/01/11 01:29:21;;;;;;;20.35;11.38;;;;;;;;;;2544151;23;19997;-92
2023/01/11 01:30:21;;;;;;;;;;;;;;;;;;2544711;23;20089;-93
2023/01/11 01:31:22;;;;;;;17.30;11.50;;;;;;;;;;2544693;23;19904;-94
2023/01/11 01:32:22;;;;;;;;;;;;;;;;;;2557670;23;20021;-93
2023/01/11 01:33:24;;;;;;;19.37;11.67;;;;;;;;;;2544732;23;20045;-93
2023/01/11 01:34:24;;;;;;;17.75;11.38;;;;;;;;;;2548267;23;20005;-91
2023/01/11 01:35:24;;;;;;;;;;;;;;;;;;2556872;23;20004;-92
2023/01/11 01:36:48;;;;;;;17.23;11.50;;;;;;;;;;2119775;23;10001575;-92
2023/01/11 01:37:52;;;;;;;19.73;11.10;;;;;;;;;;2549610;23;19993;-93
2023/01/11 01:38:52;;;;;;;18.55;11.30;;;;;;;;;;2547455;23;20010;-92
2023/01/11 01:39:53;;;;;;;;;;;;;;;;;;2544525;23;19998;-91
2023/01/11 01:40:55;;;;;;;16.90;11.53;;;;;;;;;;2539515;23;19908;-91
2023/01/11 01:41:56;;;;;;;15.90;10.10;;;;;;;;;;2560388;23;20017;-92
2023/01/11 01:42:56;;;;;;;;;;;;;;;;;;2549723;23;20001;-92
2023/01/11 01:44:02;;;;;;;18.30;10.23;;;;;;;;;;2549414;23;19958;-92
2023/01/11 01:45:16;;;;;;;15.77;10.60;;;;;;;;;;2551210;23;19997;-92
2023/01/11 01:46:18;;;;;;;15.40;9.80;;;;;;;;;;2549692;23;20005;-92
2023/01/11 01:47:36;;;;;;;15.03;8.73;;;;;;;;;;2117946;23;10001920;-92
2023/01/11 01:48:40;;;;;;;16.65;9.32;;;;;;;;;;2558314;23;19986;-92
2023/01/11 01:49:42;;;;;;;16.08;9.75;;;;;;;;;;2556749;23;19993;-92
2023/01/11 01:50:51;;;;;;;15.20;9.07;;;;;;;;;;2544400;23;20002;-92
2023/01/11 01:51:55;;;;;;;15.77;9.90;;;;;;;;;;2534088;23;19994;-92
2023/01/11 01:53:01;;;;;;;16.15;9.93;;;;;;;;;;2532976;23;20001;-92
2023/01/11 01:54:59;;;;;;;14.65;9.60;;;;;;;;;;2533495;23;20018;-91
2023/01/11 01:56:02;;;;;;;16.98;9.82;;;;;;;;;;2494758;23;20050;-91
2023/01/11 01:57:07;;;;;;;17.05;10.32;;;;;;;;;;2484443;23;20392;-92
2023/01/11 01:58:12;;;;;;;14.95;9.90;;;;;;;;;;2484879;23;20014;-92
2023/01/11 01:59:16;;;;;;;14.75;9.85;;;;;;;;;;2496297;23;20004;-91
2023/01/11 02:00:17;;;;;;;15.10;9.80;;;;;;;;;;2507347;23;20003;-92
2023/01/11 02:02:39;;;;;;;15.93;9.90;;;;;;;;;;2549680;23;19901;-93
2023/01/11 02:03:39;;;;;;;15.30;9.50;;;;;;;;;;2544840;23;19997;-92
2023/01/11 02:04:41;;;;;;;;;;;;;;;;;;2547870;23;19989;-91
2023/01/11 02:05:41;;;;;;;15.52;9.77;;;;;;;;;;2549134;23;19905;-93
2023/01/11 02:06:44;;;;;;;15.43;10.20;;;;;;;;;;2549688;23;20021;-93
2023/01/11 02:07:46;;;;;;;15.77;10.23;;;;;;;;;;2103133;23;10396492;-92
2023/01/11 02:08:55;;;;;;;17.50;10.90;;;;;;;;;;2532836;23;20423;-93
2023/01/11 02:10:14;;;;;;;16.65;10.55;;;;;;;;;;2534408;23;20002;-93
2023/01/11 02:11:42;;;;;;;18.15;10.07;;;;;;;;;;2536412;23;19998;-93
2023/01/11 02:12:56;;;;;;;15.25;10.27;;;;;;;;;;2548534;23;20357;-94
2023/01/11 02:14:04;;;;;;;17.42;10.90;;;;;;;;;;2544676;23;20489;-92
2023/01/11 02:15:08;;;;;;;15.70;10.02;;;;;;;;;;2546506;23;20001;-93
2023/01/11 02:16:11;;;;;;;17.30;10.65;;;;;;;;;;2544594;23;20009;-92
2023/01/11 02:17:12;;;;;;;16.92;10.93;;;;;;;;;;2549165;23;19997;-92
2023/01/11 02:18:17;;;;;;;19.77;11.80;;;;;;;;;;2544463;23;20004;-93
2023/01/11 02:19:26;;;;;;;16.58;10.68;;;;;;;;;;2549622;23;20001;-93
2023/01/11 02:20:56;;;;;;;18.45;10.70;;;;;;;;;;2544461;23;20024;-92
2023/01/11 02:22:15;;;;;;;15.35;9.70;;;;;;;;;;2537781;23;20002;-91
2023/01/11 02:24:02;;;;;;;17.80;9.70;;;;;;;;;;2535457;23;20002;-93
2023/01/11 02:25:28;;;;;;;15.82;9.95;;;;;;;;;;2516100;23;20006;-91
2023/01/11 02:26:34;;;;;;;15.25;9.55;;;;;;;;;;2538700;23;20422;-92
2023/01/11 02:28:08;;;;;;;17.13;10.30;;;;;;;;;;2560586;23;19993;-91
2023/01/11 02:29:09;;;;;;;15.52;10.30;;;;;;;;;;2543414;23;20053;-93
2023/01/11 02:30:29;;;;;;;;;;;;;;;;;;2532598;23;19998;-91
2023/01/11 02:34:11;;;;;;;14.95;10.23;;;;;;;;;;2517616;23;20006;-91
2023/01/11 02:35:33;;;;;;;17.90;10.57;;;;;;;;;;2531849;23;20000;-93
2023/01/11 02:36:57;;;;;;;15.77;10.73;;;;;;;;;;2543673;23;20028;-93
2023/01/11 02:38:05;;;;;;;16.15;10.93;;;;;;;;;;2123986;23;10001587;-92
2023/01/11 02:39:17;;;;;;;19.60;11.27;;;;;;;;;;2543603;23;19998;-93
2023/01/11 02:40:23;;;;;;;18.15;10.25;;;;;;;;;;2543390;23;20024;-92
2023/01/11 02:45:00;;;;;;;16.90;10.20;;;;;;;;;;2544612;23;20028;-91
2023/01/11 02:46:00;;;;;;;15.57;10.18;;;;;;;;;;2560885;23;20361;-90
2023/01/11 02:47:05;;;;;;;17.05;10.27;;;;;;;;;;2555728;23;20016;-90
2023/01/11 02:48:29;;;;;;;15.15;10.00;;;;;;;;;;2543555;23;20006;-89
2023/01/11 02:49:39;;;;;;;15.93;9.35;;;;;;;;;;2552299;23;20060;-90
2023/01/11 02:50:57;;;;;;;13.60;9.00;;;;;;;;;;2543220;23;20383;-91
2023/01/11 02:52:05;;;;;;;15.20;9.93;;;;;;;;;;2551382;23;20000;-90
2023/01/11 02:53:31;;;;;;;14.40;9.27;;;;;;;;;;2560869;23;20454;-91
2023/01/11 02:54:32;;;;;;;14.65;9.25;;;;;;;;;;2532634;23;20002;-90
2023/01/11 02:55:39;;;;;;;15.80;10.63;;;;;;;;;;2531188;23;20047;-91
2023/01/11 02:56:43;;;;;;;15.93;9.20;;;;;;;;;;2549133;23;20022;-91
2023/01/11 02:59:32;;;;;;;14.15;8.32;;;;;;;;;;2528552;23;20032;-90
2023/01/11 03:01:04;;;;;;;15.48;9.82;;;;;;;;;;2553692;23;20426;-91
2023/01/11 03:02:25;;;;;;;;;;;;;;;;;;;;;
2023/01/11 03:03:32;;;;;;;11.15;7.68;;;;;;;;;;2561088;23;20059;-91
2023/01/11 03:04:38;;;;;;;11.25;7.72;;;;;;;;;;2560986;23;19989;-92
2023/01/11 03:05:45;;;;;;;10.95;6.75;;;;;;;;;;2543732;23;20129;-92
2023/01/11 03:06:49;;;;;;;9.23;6.70;;;;;;;;;;2548987;23;19997;-91
2023/01/11 03:08:44;;;;;;;;;;;;;;;;;;;;;
2023/01/11 03:09:57;;;;;;;6.80;5.35;;;;;;;;;;2561237;23;20008;-91
2023/01/11 03:12:50;;;;;;;5.80;4.63;;;;;;;;;;2543712;23;20002;-92
2023/01/11 03:13:09;;;;;;;6.72;5.47;;;;;;;;;;2549000;23;19997;-94
2023/01/11 03:14:42;;;;;;;9.25;4.82;;;;;;;;;;2561212;23;20464;-92
2023/01/11 03:15:52;;;;;;;7.63;5.03;;;;;;;;;;2506951;23;20078;-91
2023/01/11 03:17:05;;;;;;;8.85;5.80;;;;;;;;;;2548946;23;20024;-92
2023/01/11 03:18:28;;;;;;;9.32;5.28;;;;;;;;;;2543679;23;19997;-93
2023/01/11 03:19:41;;;;;;;6.93;5.18;;;;;;;;;;2536232;23;20013;-92
2023/01/11 03:21:00;;;;;;;9.10;5.55;;;;;;;;;;2549817;23;20359;-90
2023/01/11 03:22:11;;;;;;;8.10;5.22;;;;;;;;;;2560562;23;20434;-92
2023/01/11 03:23:25;;;;;;;8.75;6.13;;;;;;;;;;2560669;23;19997;-93
2023/01/11 03:24:42;;;;;;;6.65;5.57;;;;;;;;;;2561351;23;20418;-91
2023/01/11 03:26:02;;;;;;;9.30;6.18;;;;;;;;;;2549074;23;20001;-92
2023/01/11 03:27:06;;;;;;;12.32;7.88;;;;;;;;;;2559555;23;20017;-92
2023/01/11 03:28:06;;;;;;;10.80;6.72;;;;;;;;;;2572297;23;20009;-91
2023/01/11 03:29:09;;;;;;;;;;;;;;;;;;2570222;23;20008;-91
2023/01/11 03:30:17;;;;;;;8.20;6.15;;;;;;;;;;2555379;23;19932;-92
2023/01/11 03:31:27;;;;;;;11.25;7.53;;;;;;;;;;2566396;23;20001;-93
2023/01/11 03:33:19;;;;;;;11.27;7.65;;;;;;;;;;2579059;23;19976;-91
2023/01/11 03:35:05;;;;;;;11.68;7.80;;;;;;;;;;2516540;23;20026;-92
2023/01/11 03:36:43;;;;;;;14.95;8.25;;;;;;;;;;2483544;23;20032;-92
2023/01/11 03:37:43;;;;;;;13.73;8.63;;;;;;;;;;2474777;23;20423;-92
2023/01/11 03:38:54;;;;;;;;;;;;;;;;;;2533425;23;20039;-92
2023/01/11 03:40:02;;;;;;;12.50;8.85;;;;;;;;;;2544131;23;19951;-93
2023/01/11 03:41:17;;;;;;;15.88;8.98;;;;;;;;;;2533228;23;20025;-92
2023/01/11 03:42:20;;;;;;;13.50;8.82;;;;;;;;;;2112619;23;10001002;-94
2023/01/11 03:43:23;;;;;;;14.93;8.25;;;;;;;;;;2532640;23;19998;-92
2023/01/11 03:44:26;;;;;;;9.88;6.95;;;;;;;;;;2532906;23;20435;-93
2023/01/11 03:45:28;;;;;;;12.32;6.97;;;;;;;;;;2533218;23;20002;-92
2023/01/11 03:46:33;;;;;;;10.00;6.20;;;;;;;;;;2545134;23;20003;-94
2023/01/11 03:47:34;;;;;;;9.10;6.85;;;;;;;;;;2566202;23;19989;-93
2023/01/11 03:49:04;;;;;;;9.45;6.32;;;;;;;;;;2556201;23;19990;-93
2023/01/11 03:50:11;;;;;;;12.77;7.05;;;;;;;;;;2561913;23;20044;-94
2023/01/11 03:54:42;;;;;;;5.28;4.78;;;;;;;;;;2570245;23;20016;-91
2023/01/11 03:55:45;;;;;;;6.63;4.85;;;;;;;;;;2569535;23;20324;-93
2023/01/11 03:57:00;;;;;;;7.05;4.85;;;;;;;;;;2569419;23;20000;-91
2023/01/11 03:58:01;;;;;;;8.07;5.85;;;;;;;;;;2560056;23;20299;-93
2023/01/11 03:59:01;;;;;;;;;;;;;;;;;;2557829;23;20001;-94
2023/01/11 04:00:06;;;;;;;8.27;5.90;;;;;;;;;;2556760;23;19911;-93
2023/01/11 04:01:07;;;;;;;6.95;5.40;;;;;;;;;;2557571;23;20004;-93
2023/01/11 04:02:18;;;;;;;;;;;;;;;;;;2557433;23;20079;-94
2023/01/11 04:03:18;;;;;;;7.47;5.68;;;;;;;;;;2558714;23;19915;-93
2023/01/11 04:04:19;;;;;;;;;;;;;;;;;;2569829;23;20000;-92
2023/01/11 04:05:19;;;;;;;8.33;5.67;;;;;;;;;;2572464;23;19914;-92
2023/01/11 04:06:20;;;;;;;;;;;;;;;;;;2575602;23;20008;-92
2023/01/11 04:07:23;;;;;;;11.27;7.50;;;;;;;;;;2569647;23;19958;-94
2023/01/11 04:08:24;;;;;;;7.10;6.05;;;;;;;;;;2569267;23;20369;-93
2023/01/11 04:09:25;;;;;;;;;;;;;;;;;;2557056;23;20028;-93
2023/01/11 04:10:25;;;;;;;10.03;8.17;;;;;;;;;;2573594;23;20336;-92
2023/01/11 04:11:28;;;;;;;;;;;;;;;;;;2573911;23;19992;-92
2023/01/11 04:12:35;;;;;;;13.27;9.20;;;;;;;;;;2568688;23;19914;-92
2023/01/11 04:13:38;;;;;;;14.35;8.85;;;;;;;;;;2572935;23;20369;-93
2023/01/11 04:14:38;;;;;;;13.73;8.73;;;;;;;;;;2568482;23;20337;-92
2023/01/11 04:15:39;;;;;;;;;;;;;;;;;;2572995;23;19989;-91
2023/01/11 04:16:42;;;;;;;8.83;7.47;;;;;;;;;;2568450;23;20272;-92
2023/01/11 04:17:43;;;;;;;9.80;6.80;;;;;;;;;;2572440;23;20083;-92
2023/01/11 04:18:43;;;;;;;;;;;;;;;;;;2573944;23;20422;-92
2023/01/11 04:19:43;;;;;;;12.37;8.07;;;;;;;;;;2568205;23;19942;-91
2023/01/11 04:20:45;;;;;;;;;;;;;;;;;;2556657;23;20123;-92
2023/01/11 04:21:45;;;;;;;11.85;8.50;;;;;;;;;;2556002;23;20447;-92
2023/01/11 04:22:46;;;;;;;12.10;8.18;;;;;;;;;;2572212;23;20012;-91
2023/01/11 04:23:46;;;;;;;13.15;8.60;;;;;;;;;;2571556;23;20445;-91
2023/01/11 04:24:46;;;;;;;14.32;10.10;;;;;;;;;;2568707;23;20089;-92
2023/01/11 04:25:47;;;;;;;;;;;;;;;;;;2556348;23;20335;-91
2023/01/11 04:26:47;;;;;;;13.65;8.52;;;;;;;;;;2555700;23;19910;-93
2023/01/11 04:27:48;;;;;;;10.77;8.63;;;;;;;;;;2572800;23;20459;-92
2023/01/11 04:28:48;;;;;;;;;;;;;;;;;;2574748;23;20047;-92
2023/01/11 04:29:51;;;;;;;9.90;7.17;;;;;;;;;;2140276;23;10001470;-92
2023/01/11 04:30:52;;;;;;;10.70;6.55;;;;;;;;;;2570066;23;20573;-92
2023/01/11 04:31:53;;;;;;;9.25;6.10;;;;;;;;;;2556579;23;20076;-91
2023/01/11 04:32:53;;;;;;;;;;;;;;;;;;2556820;23;20423;-90
2023/01/11 04:33:53;;;;;;;7.57;6.10;;;;;;;;;;2572987;23;19907;-90
2023/01/11 04:35:05;;;;;;;;;;;;;;;;;;2568977;23;20495;-92
2023/01/11 04:36:09;;;;;;;;;;;;;;;;;;2559422;23;20236;-91
2023/01/11 04:37:19;;;;;;;9.85;6.85;;;;;;;;;;2556736;23;19904;-91
2023/01/11 04:38:23;;;;;;;7.88;6.30;;;;;;;;;;2562319;23;19993;-92
2023/01/11 04:39:24;;;;;;;7.65;6.03;;;;;;;;;;2573318;23;19992;-92
2023/01/11 04:40:29;;;;;;;;;;;;;;;;;;2573988;23;20004;-92
2023/01/11 04:44:23;;;;;;;17.35;12.18;;;;;;;;;;2574081;23;20001;-91
2023/01/11 04:45:24;;;;;;;38.75;25.98;;;;;;;;;;2531883;23;19998;-92
2023/01/11 04:46:24;;;;;;;;;;;;;;;;;;2520534;23;20364;-92
2023/01/11 04:47:27;;;;;;;42.10;29.27;;;;;;;;;;2532150;23;19932;-91
2023/01/11 04:48:35;;;;;;;38.90;27.85;;;;;;;;;;2531352;23;20101;-92
2023/01/11 04:49:36;;;;;;;44.58;33.65;;;;;;;;;;2533871;23;20384;-93
2023/01/11 04:50:36;;;;;;;;;;;;;;;;;;2549296;23;19996;-92
2023/01/11 04:51:41;;;;;;;56.55;43.15;;;;;;;;;;2341862;23;10002342;-92
2023/01/11 04:53:14;;;;;;;45.17;35.88;;;;;;;;;;2574973;23;20297;-91
2023/01/11 04:54:15;;;;;;;42.80;30.77;;;;;;;;;;2577803;23;20000;-92
2023/01/11 04:55:15;;;;;;;;;;;;;;;;;;2574848;23;20066;-91
2023/01/11 04:56:21;;;;;;;37.63;25.37;;;;;;;;;;2568593;23;19903;-92
2023/01/11 04:57:21;;;;;;;36.30;26.13;;;;;;;;;;2557948;23;20005;-91
2023/01/11 04:58:22;;;;;;;;;;;;;;;;;;2569419;23;20028;-91
2023/01/11 04:59:22;;;;;;;37.63;27.03;;;;;;;;;;2557000;23;19903;-93
2023/01/11 05:00:22;;;;;;;;;;;;;;;;;;2556995;23;20035;-92
2023/01/11 05:01:23;;;;;;;42.37;29.93;;;;;;;;;;2556755;23;19905;-92
2023/01/11 05:02:23;;;;;;;;;;;;;;;;;;2574281;23;20469;-93
2023/01/11 05:03:24;;;;;;;51.30;40.77;;;;;;;;;;2569901;23;19908;-91
2023/01/11 05:04:24;;;;;;;;;;;;;;;;;;2558335;23;20001;-91
2023/01/11 05:05:25;;;;;;;60.40;41.13;;;;;;;;;;2134808;23;10001907;-92
2023/01/11 05:06:25;;;;;;;61.40;41.28;;;;;;;;;;2123446;23;10001599;-94
2023/01/11 05:08:09;;;;;;;;;;;;;;;;;;;;;
2023/01/11 05:10:01;;;;;;;;;;;;;;;;;;;;;
2023/01/11 05:11:17;;;;;;;;;;;;;;;;;;;;;
2023/01/11 05:12:53;;;;;;;;;;;;;;;;;;;;;
2023/01/11 05:14:04;;;;;;;36.33;22.20;;;;;;;;;;2561137;23;19997;-93
2023/01/11 05:15:05;;;;;;;30.65;20.52;;;;;;;;;;2541584;23;20001;-94
2023/01/11 05:16:19;;;;;;;33.95;23.08;;;;;;;;;;2544042;23;20005;-93
2023/01/11 05:17:21;;;;;;;34.35;24.67;;;;;;;;;;2538824;23;20089;-93
2023/01/11 05:18:21;;;;;;;30.70;21.52;;;;;;;;;;2550456;23;20466;-93
2023/01/11 05:19:22;;;;;;;;;;;;;;;;;;2555747;23;19997;-94
2023/01/11 05:20:22;;;;;;;26.20;18.40;;;;;;;;;;2541333;23;19948;-95
2023/01/11 05:21:27;;;;;;;26.30;17.95;;;;;;;;;;2191545;23;10001929;-93
2023/01/11 05:22:28;;;;;;;24.98;18.38;;;;;;;;;;2537688;23;20345;-94
2023/01/11 05:23:29;;;;;;;;;;;;;;;;;;2533189;23;20020;-94
2023/01/11 05:24:35;;;;;;;29.15;18.17;;;;;;;;;;2532927;23;19912;-92
2023/01/11 05:25:41;;;;;;;23.52;16.02;;;;;;;;;;2545827;23;20081;-93
2023/01/11 05:26:47;;;;;;;20.38;14.50;;;;;;;;;;2544874;23;20091;-94
2023/01/11 05:29:51;;;;;;;18.33;13.02;;;;;;;;;;2560517;23;20085;-95
2023/01/11 05:31:22;;;;;;;;;;;;;;;;;;;;;
2023/01/11 05:36:22;;;;;;;22.83;15.20;;;;;;;;;;2561558;23;20001;-95
2023/01/11 05:37:23;;;;;;;23.95;17.27;;;;;;;;;;2544793;23;20501;-96
2023/01/11 05:38:23;;;;;;;;;;;;;;;;;;2545610;23;20041;-94
2023/01/11 05:39:24;;;;;;;25.37;16.53;;;;;;;;;;2532780;23;19992;-95
2023/01/11 05:40:24;;;;;;;;;;;;;;;;;;2545459;23;20009;-94
2023/01/11 05:41:26;;;;;;;23.50;16.20;;;;;;;;;;2544885;23;19905;-91
2023/01/11 05:42:27;;;;;;;21.45;14.55;;;;;;;;;;2544807;23;19993;-91
2023/01/11 05:43:28;;;;;;;;;;;;;;;;;;2532070;23;20085;-91
2023/01/11 05:46:27;;;;;;;21.65;14.93;;;;;;;;;;2559996;23;20004;-95
2023/01/11 05:47:27;;;;;;;;;;;;;;;;;;2545146;23;20001;-92
2023/01/11 05:49:00;;;;;;;;;;;;;;;;;;;;;
2023/01/11 05:52:34;;;;;;;23.63;15.68;;;;;;;;;;2560764;23;19993;-92
2023/01/11 05:53:37;;;;;;;20.85;14.15;;;;;;;;;;2544251;23;19997;-93
2023/01/11 05:54:37;;;;;;;19.52;13.25;;;;;;;;;;2512422;23;20018;-93
2023/01/11 05:57:46;;;;;;;20.02;14.85;;;;;;;;;;2555869;23;20400;-93
2023/01/11 05:58:48;;;;;;;19.70;14.27;;;;;;;;;;2543979;23;20044;-93
2023/01/11 05:59:48;;;;;;;25.83;16.13;;;;;;;;;;2533169;23;20117;-93
2023/01/11 06:00:49;;;;;;;;;;;;;;;;;;2110439;23;9999783;-93
2023/01/11 06:01:50;;;;;;;21.17;15.40;;;;;;;;;;2543703;23;19912;-93
2023/01/11 06:02:50;;;;;;;;;;;;;;;;;;2532320;23;20093;-92
2023/01/11 06:03:51;;;;;;;30.40;17.13;;;;;;;;;;2531913;23;19911;-91
2023/01/11 06:04:52;;;;;;;29.65;17.08;;;;;;;;;;2586376;23;20000;-93
2023/01/11 06:05:52;;;;;;;27.23;17.00;;;;;;;;;;2598546;22;20034;-92
2023/01/11 06:06:52;;;;;;;;;;;;;;;;;;2599240;22;20018;-92
2023/01/11 06:07:53;;;;;;;27.13;17.67;;;;;;;;;;2593815;22;19914;-92
2023/01/11 06:08:53;;;;;;;;;;;;;;;;;;2581531;23;19996;-94
2023/01/11 06:09:54;;;;;;;35.33;20.03;;;;;;;;;;2580835;23;19915;-94
2023/01/11 06:10:55;;;;;;;;;;;;;;;;;;2586991;23;20000;-91
2023/01/11 06:11:55;;;;;;;39.50;23.73;;;;;;;;;;2582481;23;19939;-94
2023/01/11 06:13:25;;;;;;;;;;;;;;;;;;2570366;23;20345;-94
2023/01/11 06:14:16;;;;;;;44.47;24.10;;;;;;;;;;2582079;23;20277;-92
2023/01/11 06:15:16;;;;;;;;;;;;;;;;;;2581827;23;20051;-92
2023/01/11 06:16:19;;;;;;;52.07;30.07;;;;;;;;;;2585956;23;19904;-93
2023/01/11 06:17:19;;;;;;;50.80;27.88;;;;;;;;;;2582018;23;20023;-92
2023/01/11 06:18:20;;;;;;;;;;;;;;;;;;2586484;23;20000;-92
2023/01/11 06:19:23;;;;;;;48.03;27.07;;;;;;;;;;2581823;23;19986;-93
2023/01/11 06:20:23;;;;;;;41.88;24.45;;;;;;;;;;2568085;23;20366;-89
2023/01/11 06:21:24;;;;;;;;;;;;;;;;;;2585250;23;20059;-88
2023/01/11 06:22:24;;;;;;;40.40;24.15;;;;;;;;;;2580371;23;19908;-87
2023/01/11 06:23:28;;;;;;;40.20;24.48;;;;;;;;;;2584572;23;20054;-89
2023/01/11 06:24:28;;;;;;;36.13;21.73;;;;;;;;;;2585912;22;20400;-88
2023/01/11 06:25:29;;;;;;;;;;;;;;;;;;2594569;22;20000;-89
2023/01/11 06:26:29;;;;;;;30.40;20.90;;;;;;;;;;2160331;22;10001708;-88
2023/01/11 06:27:29;;;;;;;;;;;;;;;;;;2144348;23;10103819;-88
2023/01/11 06:28:30;;;;;;;39.95;23.45;;;;;;;;;;2577142;23;19923;-89
2023/01/11 06:29:31;;;;;;;44.00;25.60;;;;;;;;;;2588123;23;19992;-90
2023/01/11 06:30:31;;;;;;;;;;;;;;;;;;2588127;23;20074;-89
2023/01/11 06:31:32;;;;;;;47.83;28.80;;;;;;;;;;2580784;23;19945;-90
2023/01/11 06:32:32;;;;;;;45.40;26.75;;;;;;;;;;2568204;23;19993;-89
2023/01/11 06:33:33;;;;;;;43.72;25.60;;;;;;;;;;2584840;23;20397;-89
2023/01/11 06:34:34;;;;;;;42.65;25.65;;;;;;;;;;2585812;22;20063;-88
2023/01/11 06:35:40;;;;;;;;;;;;;;;;;;2581464;23;20080;-88
2023/01/11 06:36:41;;;;;;;33.03;22.50;;;;;;;;;;2569047;23;19914;-88
2023/01/11 06:37:41;;;;;;;34.80;23.38;;;;;;;;;;2139198;23;10001163;-87
2023/01/11 06:38:42;;;;;;;38.63;22.70;;;;;;;;;;2567198;23;20000;-89
2023/01/11 06:39:42;;;;;;;31.67;20.52;;;;;;;;;;2567998;23;20008;-90
2023/01/11 06:40:43;;;;;;;;;;;;;;;;;;2585132;23;20023;-88
2023/01/11 06:41:43;;;;;;;33.22;20.73;;;;;;;;;;2585701;23;19911;-89
2023/01/11 06:42:44;;;;;;;30.90;19.88;;;;;;;;;;2580424;23;20322;-88
2023/01/11 06:43:45;;;;;;;26.95;18.58;;;;;;;;;;2567977;23;20003;-90
2023/01/11 06:44:48;;;;;;;31.00;19.75;;;;;;;;;;2567801;23;20103;-88
2023/01/11 06:45:48;;;;;;;31.63;20.85;;;;;;;;;;2568360;23;20062;-88
2023/01/11 06:46:51;;;;;;;;;;;;;;;;;;2585070;23;20500;-89
2023/01/11 06:48:13;;;;;;;33.45;21.33;;;;;;;;;;2580662;22;20197;-89
2023/01/11 06:49:14;;;;;;;33.78;19.92;;;;;;;;;;2572813;23;20480;-88
2023/01/11 06:50:15;;;;;;;34.33;21.33;;;;;;;;;;2152639;23;9999836;-89
2023/01/11 06:51:19;;;;;;;33.40;21.55;;;;;;;;;;2580608;23;20463;-88
2023/01/11 06:52:19;;;;;;;36.83;22.15;;;;;;;;;;2584892;23;20373;-89
2023/01/11 06:53:20;;;;;;;;;;;;;;;;;;2585258;22;20022;-90
2023/01/11 06:54:23;;;;;;;34.30;22.50;;;;;;;;;;2592107;22;20317;-89
2023/01/11 06:55:56;;;;;;;32.40;19.55;;;;;;;;;;2570398;23;20004;-89
2023/01/11 06:56:57;;;;;;;36.13;22.15;;;;;;;;;;2567188;23;20098;-89
2023/01/11 06:57:57;;;;;;;;;;;;;;;;;;2572307;23;20000;-89
2023/01/11 06:59:26;;;;;;;;;;;;;;;;;;;;;
2023/01/11 07:02:26;;;;;;;42.33;23.30;;;;;;;;;;2571780;23;20434;-90
2023/01/11 07:03:26;;;;;;;37.05;19.95;;;;;;;;;;2572299;23;19993;-90
2023/01/11 07:04:27;;;;;;;;;;;;;;;;;;2559720;23;20102;-90
2023/01/11 07:05:56;;;;;;;35.70;18.80;;;;;;;;;;2566792;23;20002;-90
2023/01/11 07:06:57;;;;;;;31.15;18.95;;;;;;;;;;2564341;23;20000;-90
2023/01/11 07:07:58;;;;;;;;;;;;;;;;;;2568290;23;20520;-90
2023/01/11 07:08:58;;;;;;;33.30;18.80;;;;;;;;;;2555904;23;19962;-88
2023/01/11 07:09:59;;;;;;;34.67;19.65;;;;;;;;;;2556924;23;20016;-89
2023/01/11 07:10:59;;;;;;;;;;;;;;;;;;2543351;23;20001;-90
2023/01/11 07:11:59;;;;;;;30.60;17.80;;;;;;;;;;2554628;23;19945;-89
2023/01/11 07:13:00;;;;;;;;;;;;;;;;;;2555575;23;20005;-88
2023/01/11 07:14:00;;;;;;;24.92;15.50;;;;;;;;;;2542578;23;20331;-89
2023/01/11 07:15:01;;;;;;;;;;;;;;;;;;2543027;23;20005;-89
2023/01/11 07:16:01;;;;;;;20.77;14.23;;;;;;;;;;2554853;23;19989;-89
2023/01/11 07:17:02;;;;;;;19.10;12.02;;;;;;;;;;2555218;23;20080;-89
2023/01/11 07:18:02;;;;;;;17.02;9.63;;;;;;;;;;2554822;23;20152;-89
2023/01/11 07:19:03;;;;;;;;;;;;;;;;;;2555430;23;19997;-89
2023/01/11 07:20:05;;;;;;;21.50;12.77;;;;;;;;;;2559194;23;19904;-89
2023/01/11 07:21:05;;;;;;;16.92;11.45;;;;;;;;;;2571413;23;20067;-88
2023/01/11 07:22:06;;;;;;;;;;;;;;;;;;2572029;23;20408;-88
2023/01/11 07:23:06;;;;;;;16.80;9.80;;;;;;;;;;2567486;23;19927;-88
2023/01/11 07:24:06;;;;;;;;;;;;;;;;;;2555358;23;20497;-88
2023/01/11 07:25:07;;;;;;;15.43;9.07;;;;;;;;;;2555153;23;20011;-89
2023/01/11 07:26:10;;;;;;;41.08;18.67;;;;;;;;;;2567300;23;20039;-89
2023/01/11 07:27:11;;;;;;;21.60;11.27;;;;;;;;;;2581669;22;20446;-89
2023/01/11 07:28:11;;;;;;;;;;;;;;;;;;2580859;23;19992;-89